createdAt,value
2022-10-19T00:01:07.785Z,6.80
2022-10-19T00:03:37.753Z,7.20
2022-10-19T00:06:12.754Z,7.23
2022-10-19T00:08:40.559Z,5.90
2022-10-19T00:11:08.863Z,6.77
2022-10-19T00:13:37.370Z,7.27
2022-10-19T00:16:11.424Z,6.70
2022-10-19T00:18:43.352Z,6.83
2022-10-19T00:21:13.151Z,6.47
2022-10-19T00:23:41.060Z,6.60
2022-10-19T00:26:09.466Z,5.70
2022-10-19T00:28:37.800Z,5.90
2022-10-19T00:31:07.451Z,6.20
2022-10-19T00:33:35.526Z,6.60
2022-10-19T00:36:05.612Z,6.27
2022-10-19T00:38:33.751Z,6.40
2022-10-19T00:41:01.560Z,6.23
2022-10-19T00:43:31.922Z,6.77
2022-10-19T00:45:59.706Z,6.60
2022-10-19T00:48:32.791Z,6.27
2022-10-19T00:51:01.219Z,6.50
2022-10-19T00:53:32.165Z,6.73
2022-10-19T00:56:04.246Z,7.77
2022-10-19T00:58:32.457Z,6.97
2022-10-19T01:01:02.639Z,6.97
2022-10-19T01:03:30.614Z,6.30
2022-10-19T01:05:58.626Z,7.60
2022-10-19T01:08:27.237Z,6.57
2022-10-19T01:11:08.541Z,5.60
2022-10-19T01:13:44.600Z,5.90
2022-10-19T01:16:19.386Z,7.03
2022-10-19T01:18:56.235Z,6.33
2022-10-19T01:21:27.268Z,6.70
2022-10-19T01:24:27.401Z,5.60
2022-10-19T01:27:22.329Z,6.07
2022-10-19T01:30:15.704Z,6.53
2022-10-19T01:32:58.792Z,5.83
2022-10-19T01:35:33.051Z,6.17
2022-10-19T01:38:10.824Z,6.90
2022-10-19T01:40:45.970Z,6.20
2022-10-19T01:43:23.328Z,6.70
2022-10-19T01:45:56.587Z,6.43
2022-10-19T01:48:29.979Z,6.70
2022-10-19T01:51:02.836Z,7.90
2022-10-19T01:53:36.679Z,7.00
2022-10-19T01:56:06.343Z,7.43
2022-10-19T01:58:38.151Z,6.83
2022-10-19T02:03:41.377Z,6.70
2022-10-19T02:06:12.738Z,7.80
2022-10-19T02:08:45.652Z,7.70
2022-10-19T02:11:13.457Z,6.40
2022-10-19T02:13:43.849Z,6.87
2022-10-19T02:16:17.626Z,5.90
2022-10-19T02:18:50.065Z,7.10
2022-10-19T02:21:18.212Z,7.03
2022-10-19T02:23:47.537Z,6.00
2022-10-19T02:26:17.226Z,7.40
2022-10-19T02:28:45.407Z,6.93
2022-10-19T02:31:15.104Z,8.40
2022-10-19T02:33:43.100Z,6.80
2022-10-19T02:36:11.041Z,7.10
2022-10-19T02:38:38.908Z,8.40
2022-10-19T02:41:12.550Z,8.30
2022-10-19T02:43:43.927Z,8.23
2022-10-19T02:46:19.744Z,7.80
2022-10-19T02:48:48.226Z,9.50
2022-10-19T02:51:32.833Z,8.20
2022-10-19T02:54:04.135Z,8.30
2022-10-19T02:56:33.216Z,8.27
2022-10-19T02:59:01.300Z,9.40
2022-10-19T03:01:30.478Z,9.87
2022-10-19T03:03:58.288Z,12.27
2022-10-19T03:06:26.182Z,12.87
2022-10-19T03:08:54.099Z,11.07
2022-10-19T03:11:22.055Z,11.57
2022-10-19T03:13:49.953Z,11.50
2022-10-19T03:16:17.832Z,13.57
2022-10-19T03:18:49.631Z,13.03
2022-10-19T03:21:17.895Z,13.57
2022-10-19T03:23:45.802Z,12.10
2022-10-19T03:26:16.500Z,12.37
2022-10-19T03:28:44.687Z,13.30
2022-10-19T03:31:13.001Z,14.90
2022-10-19T03:33:40.901Z,14.13
2022-10-19T03:36:20.507Z,15.47
2022-10-19T03:38:48.432Z,13.90
2022-10-19T03:41:16.176Z,13.20
2022-10-19T03:43:44.057Z,12.60
2022-10-19T03:46:11.974Z,15.30
2022-10-19T03:48:39.904Z,14.47
2022-10-19T03:51:10.040Z,13.03
2022-10-19T03:53:40.691Z,14.30
2022-10-19T03:56:10.651Z,13.77
2022-10-19T03:58:40.129Z,14.10
2022-10-19T04:01:09.941Z,13.83
2022-10-19T04:03:38.273Z,14.70
2022-10-19T04:06:08.263Z,14.97
2022-10-19T04:08:36.334Z,15.40
2022-10-19T04:11:08.634Z,15.93
2022-10-19T04:13:36.482Z,13.97
2022-10-19T04:16:04.300Z,15.57
2022-10-19T04:18:32.249Z,14.60
2022-10-19T04:21:01.355Z,15.13
2022-10-19T04:23:31.000Z,15.80
2022-10-19T04:26:01.440Z,16.20
2022-10-19T04:28:30.986Z,14.80
2022-10-19T04:30:58.828Z,15.07
2022-10-19T04:33:26.771Z,14.40
2022-10-19T04:35:59.610Z,15.30
2022-10-19T04:38:27.734Z,15.07
2022-10-19T04:40:56.108Z,15.33
2022-10-19T04:43:24.304Z,15.70
2022-10-19T04:45:53.437Z,13.97
2022-10-19T04:48:21.262Z,14.60
2022-10-19T04:50:49.038Z,15.70
2022-10-19T04:53:16.804Z,15.77
2022-10-19T04:55:44.598Z,14.40
2022-10-19T04:58:12.425Z,14.57
2022-10-19T05:00:40.418Z,14.70
2022-10-19T05:03:09.997Z,14.13
2022-10-19T05:05:37.821Z,15.73
2022-10-19T05:08:05.892Z,16.30
2022-10-19T05:10:33.726Z,15.50
2022-10-19T05:13:01.880Z,14.50
2022-10-19T05:15:29.783Z,16.20
2022-10-19T05:17:58.260Z,15.60
2022-10-19T05:20:27.572Z,16.43
2022-10-19T05:22:55.311Z,17.10
2022-10-19T05:25:23.220Z,16.40
2022-10-19T05:27:54.689Z,15.57
2022-10-19T05:30:22.995Z,14.93
2022-10-19T05:32:50.831Z,16.07
2022-10-19T05:35:21.556Z,15.67
2022-10-19T05:37:55.526Z,17.83
2022-10-19T05:40:23.464Z,17.80
2022-10-19T05:42:51.236Z,18.80
2022-10-19T05:45:19.001Z,18.77
2022-10-19T05:47:46.843Z,20.20
2022-10-19T05:50:14.647Z,16.70
2022-10-19T05:52:42.423Z,17.37
2022-10-19T05:55:11.895Z,18.30
2022-10-19T05:57:39.688Z,16.80
2022-10-19T06:00:08.404Z,19.73
2022-10-19T06:02:36.260Z,19.60
2022-10-19T06:05:04.016Z,18.40
2022-10-19T06:07:32.246Z,16.40
2022-10-19T06:10:00.438Z,16.73
2022-10-19T06:12:29.414Z,16.77
2022-10-19T06:14:57.085Z,15.70
2022-10-19T06:17:24.770Z,16.07
2022-10-19T06:19:52.645Z,16.07
2022-10-19T06:22:20.957Z,15.90
2022-10-19T06:24:48.792Z,14.87
2022-10-19T06:27:16.648Z,16.70
2022-10-19T06:29:45.823Z,13.43
2022-10-19T06:32:13.598Z,14.10
2022-10-19T06:34:41.424Z,15.27
2022-10-19T06:37:09.476Z,14.90
2022-10-19T06:39:37.193Z,14.70
2022-10-19T06:42:05.164Z,14.33
2022-10-19T06:44:33.033Z,14.13
2022-10-19T06:47:02.234Z,13.03
2022-10-19T06:49:30.155Z,14.30
2022-10-19T06:51:57.950Z,13.23
2022-10-19T06:54:25.974Z,12.87
2022-10-19T06:56:53.829Z,12.03
2022-10-19T06:59:21.691Z,12.33
2022-10-19T07:01:49.571Z,13.00
2022-10-19T07:04:18.761Z,12.93
2022-10-19T07:06:46.760Z,12.80
2022-10-19T07:09:15.489Z,14.10
2022-10-19T07:11:46.083Z,11.27
2022-10-19T07:14:14.393Z,12.87
2022-10-19T07:16:42.252Z,13.50
2022-10-19T07:19:10.303Z,14.20
2022-10-19T07:21:41.737Z,14.80
2022-10-19T07:24:09.763Z,14.83
2022-10-19T07:26:37.935Z,14.03
2022-10-19T07:29:06.117Z,13.33
2022-10-19T07:31:34.001Z,13.03
2022-10-19T07:34:04.560Z,12.83
2022-10-19T07:36:34.255Z,11.10
2022-10-19T07:39:05.374Z,10.70
2022-10-19T07:41:34.737Z,10.70
2022-10-19T07:44:03.168Z,10.70
2022-10-19T07:46:33.487Z,10.30
2022-10-19T07:49:01.761Z,9.30
2022-10-19T07:54:04.347Z,9.67
2022-10-19T07:56:32.804Z,9.60
2022-10-19T07:59:02.735Z,9.20
2022-10-19T08:01:32.815Z,9.30
2022-10-19T08:06:49.726Z,8.80
2022-10-19T08:09:47.257Z,8.77
2022-10-19T08:12:09.056Z,9.27
2022-10-19T08:14:40.335Z,9.60
2022-10-19T08:17:09.002Z,9.40
2022-10-19T08:19:41.316Z,9.80
2022-10-19T08:22:10.385Z,10.60
2022-10-19T08:24:39.617Z,9.80
2022-10-19T08:27:07.496Z,8.80
2022-10-19T08:29:35.340Z,9.07
2022-10-19T08:32:03.173Z,8.73
2022-10-19T08:34:30.973Z,9.53
2022-10-19T08:36:58.851Z,9.50
2022-10-19T08:39:26.663Z,9.27
2022-10-19T08:42:03.456Z,9.43
2022-10-19T08:45:00.673Z,9.70
2022-10-19T08:47:54.949Z,8.70
2022-10-19T08:50:26.109Z,8.30
2022-10-19T08:53:00.025Z,7.73
2022-10-19T08:55:35.292Z,8.13
2022-10-19T08:58:19.156Z,8.17
2022-10-19T09:00:53.705Z,8.23
2022-10-19T09:03:43.872Z,8.20
2022-10-19T09:06:22.843Z,6.63
2022-10-19T09:08:52.794Z,7.87
2022-10-19T09:11:26.057Z,8.10
2022-10-19T09:14:06.409Z,8.50
2022-10-19T09:16:35.871Z,7.80
2022-10-19T09:19:05.071Z,8.20
2022-10-19T09:21:46.365Z,8.53
2022-10-19T09:24:29.289Z,7.83
2022-10-19T09:26:59.658Z,8.70
2022-10-19T09:29:33.363Z,8.73
2022-10-19T09:32:02.754Z,7.20
2022-10-19T09:34:35.493Z,7.20
2022-10-19T09:37:03.295Z,7.30
2022-10-19T09:39:31.997Z,8.40
2022-10-19T09:42:11.503Z,8.53
2022-10-19T09:44:40.652Z,8.23
2022-10-19T09:47:34.144Z,8.63
2022-10-19T09:50:16.009Z,8.37
2022-10-19T09:52:45.323Z,8.90
2022-10-19T09:55:26.091Z,8.23
2022-10-19T09:58:01.107Z,7.20
2022-10-19T10:00:37.021Z,8.47
2022-10-19T10:03:06.013Z,6.60
2022-10-19T10:05:35.666Z,7.20
2022-10-19T10:08:03.915Z,6.73
2022-10-19T10:10:38.104Z,6.77
2022-10-19T10:13:06.664Z,7.70
2022-10-19T10:15:44.611Z,6.73
2022-10-19T10:18:17.150Z,6.00
2022-10-19T10:20:59.464Z,5.90
2022-10-19T10:23:31.069Z,5.10
2022-10-19T10:26:00.818Z,5.13
2022-10-19T10:28:30.891Z,4.90
2022-10-19T10:31:05.697Z,5.23
2022-10-19T10:33:45.438Z,5.57
2022-10-19T10:36:14.301Z,5.77
2022-10-19T10:38:46.758Z,5.60
2022-10-19T10:41:17.961Z,6.30
2022-10-19T10:43:57.581Z,6.70
2022-10-19T10:46:39.231Z,5.80
2022-10-19T10:49:09.085Z,4.93
2022-10-19T10:51:40.640Z,5.13
2022-10-19T10:54:19.572Z,5.20
2022-10-19T10:57:04.405Z,5.53
2022-10-19T10:59:44.677Z,4.10
2022-10-19T11:04:58.666Z,4.20
2022-10-19T11:07:28.900Z,4.10
2022-10-19T11:10:00.098Z,4.00
2022-10-19T11:12:37.485Z,4.50
2022-10-19T11:15:14.825Z,3.47
2022-10-19T11:17:53.800Z,4.30
2022-10-19T11:20:24.160Z,3.73
2022-10-19T11:22:56.774Z,4.03
2022-10-19T11:25:33.907Z,3.70
2022-10-19T11:28:16.548Z,3.80
2022-10-19T11:30:58.416Z,3.80
2022-10-19T11:36:30.230Z,5.40
2022-10-19T11:39:12.808Z,4.13
2022-10-19T11:41:52.375Z,4.20
2022-10-19T11:44:33.856Z,4.20
2022-10-19T11:47:21.547Z,4.23
2022-10-19T11:50:03.214Z,3.90
2022-10-19T11:52:40.691Z,5.47
2022-10-19T11:55:20.268Z,4.10
2022-10-19T11:57:56.739Z,4.60
2022-10-19T12:00:38.682Z,5.67
2022-10-19T12:03:42.650Z,5.43
2022-10-19T12:06:19.789Z,4.50
2022-10-19T12:09:02.412Z,5.30
2022-10-19T12:11:47.454Z,5.13
2022-10-19T12:14:18.918Z,5.13
2022-10-19T12:16:50.717Z,5.07
2022-10-19T12:19:22.830Z,4.90
2022-10-19T12:21:54.854Z,5.03
2022-10-19T12:24:26.459Z,4.53
2022-10-19T12:26:55.823Z,4.90
2022-10-19T12:29:27.919Z,5.70
2022-10-19T12:31:58.521Z,5.30
2022-10-19T12:34:36.854Z,5.37
2022-10-19T12:37:12.459Z,5.37
2022-10-19T12:39:47.035Z,5.63
2022-10-19T12:42:26.227Z,5.77
2022-10-19T12:45:18.544Z,5.80
2022-10-19T12:48:18.957Z,5.80
2022-10-19T12:51:05.319Z,5.80
2022-10-19T12:53:38.087Z,5.20
2022-10-19T12:56:09.212Z,5.67
2022-10-19T12:58:47.749Z,6.83
2022-10-19T13:01:19.998Z,5.50
2022-10-19T13:03:49.743Z,5.27
2022-10-19T13:06:30.384Z,5.00
2022-10-19T13:09:01.730Z,4.93
2022-10-19T13:11:29.855Z,5.33
2022-10-19T13:14:03.455Z,4.80
2022-10-19T13:16:41.485Z,5.63
2022-10-19T13:19:20.783Z,5.43
2022-10-19T13:22:27.158Z,5.10
2022-10-19T13:25:23.581Z,5.33
2022-10-19T13:27:52.415Z,4.67
2022-10-19T13:30:55.452Z,4.97
2022-10-19T13:33:52.047Z,4.63
2022-10-19T13:36:21.399Z,5.07
2022-10-19T13:39:06.131Z,4.40
2022-10-19T13:41:50.041Z,4.07
2022-10-19T13:44:35.486Z,3.87
2022-10-19T13:47:34.640Z,4.90
2022-10-19T13:50:20.866Z,4.70
2022-10-19T13:53:13.544Z,4.70
2022-10-19T13:55:57.493Z,3.93
2022-10-19T13:58:59.711Z,4.50
2022-10-19T14:01:42.747Z,4.27
2022-10-19T14:04:37.464Z,4.23
2022-10-19T14:07:13.713Z,4.47
2022-10-19T14:10:03.217Z,4.77
2022-10-19T14:12:32.181Z,4.50
2022-10-19T14:15:01.292Z,4.30
2022-10-19T14:17:34.121Z,4.70
2022-10-19T14:20:04.029Z,4.63
2022-10-19T14:22:34.030Z,4.00
2022-10-19T14:25:04.788Z,4.07
2022-10-19T14:27:33.214Z,3.70
2022-10-19T14:30:03.266Z,4.43
2022-10-19T14:32:34.087Z,4.27
2022-10-19T14:35:06.590Z,4.50
2022-10-19T14:37:34.927Z,4.83
2022-10-19T14:40:07.210Z,4.37
2022-10-19T14:42:40.524Z,4.40
2022-10-19T14:45:16.023Z,4.10
2022-10-19T14:48:16.565Z,5.30
2022-10-19T14:50:48.142Z,4.53
2022-10-19T14:53:27.377Z,4.10
2022-10-19T14:55:58.668Z,4.57
2022-10-19T14:58:32.830Z,4.60
2022-10-19T15:01:02.014Z,3.77
2022-10-19T15:03:31.895Z,3.93
2022-10-19T15:06:03.929Z,4.40
2022-10-19T15:08:37.473Z,4.37
2022-10-19T15:11:07.508Z,5.33
2022-10-19T15:13:41.461Z,5.00
2022-10-19T15:16:32.601Z,4.70
2022-10-19T15:19:04.172Z,4.90
2022-10-19T15:21:33.603Z,4.30
2022-10-19T15:24:16.788Z,4.90
2022-10-19T15:27:01.724Z,4.20
2022-10-19T15:29:36.460Z,4.40
2022-10-19T15:32:16.829Z,4.77
2022-10-19T15:34:45.968Z,5.10
2022-10-19T15:37:19.477Z,4.50
2022-10-19T15:39:48.245Z,4.70
2022-10-19T15:42:38.076Z,5.30
2022-10-19T15:45:35.461Z,4.40
2022-10-19T15:48:28.862Z,5.37
2022-10-19T15:50:58.072Z,5.60
2022-10-19T15:53:27.344Z,5.17
2022-10-19T15:55:55.116Z,5.47
2022-10-19T15:58:22.817Z,4.83
2022-10-19T16:00:51.845Z,4.90
2022-10-19T16:03:19.654Z,5.37
2022-10-19T16:05:47.497Z,6.27
2022-10-19T16:08:15.434Z,5.50
2022-10-19T16:10:43.142Z,5.43
2022-10-19T16:13:10.854Z,5.80
2022-10-19T16:15:38.723Z,5.20
2022-10-19T16:18:08.085Z,5.43
2022-10-19T16:20:35.711Z,5.17
2022-10-19T16:23:03.368Z,6.07
2022-10-19T16:25:32.204Z,5.20
2022-10-19T16:27:59.955Z,5.10
2022-10-19T16:30:27.808Z,5.60
2022-10-19T16:32:55.398Z,6.40
2022-10-19T16:35:25.255Z,5.87
2022-10-19T16:37:52.898Z,6.07
2022-10-19T16:40:20.695Z,6.60
2022-10-19T16:42:48.377Z,6.90
2022-10-19T16:45:16.124Z,6.53
2022-10-19T16:47:43.778Z,9.00
2022-10-19T16:50:12.279Z,7.73
2022-10-19T16:52:41.368Z,6.37
2022-10-19T16:55:09.550Z,5.93
2022-10-19T16:57:37.701Z,6.67
2022-10-19T17:00:09.435Z,6.20
2022-10-19T17:02:41.815Z,6.00
2022-10-19T17:05:12.508Z,5.43
2022-10-19T17:07:41.673Z,5.77
2022-10-19T17:10:10.202Z,6.50
2022-10-19T17:12:40.679Z,6.20
2022-10-19T17:15:40.998Z,6.57
2022-10-19T17:17:57.993Z,6.43
2022-10-19T17:20:25.664Z,6.67
2022-10-19T17:22:55.010Z,6.10
2022-10-19T17:25:22.763Z,7.10
2022-10-19T17:27:52.040Z,8.37
2022-10-19T17:30:20.027Z,8.83
2022-10-19T17:32:47.895Z,8.73
2022-10-19T17:35:15.866Z,6.80
2022-10-19T17:37:44.032Z,7.87
2022-10-19T17:40:14.095Z,7.87
2022-10-19T17:42:41.758Z,7.50
2022-10-19T17:45:10.567Z,7.63
2022-10-19T17:47:38.434Z,7.87
2022-10-19T17:50:07.005Z,8.50
2022-10-19T17:52:35.142Z,8.23
2022-10-19T17:55:18.220Z,7.90
2022-10-19T17:57:47.358Z,8.00
2022-10-19T18:00:16.127Z,7.90
2022-10-19T18:02:45.592Z,7.50
2022-10-19T18:05:13.588Z,9.17
2022-10-19T18:07:43.315Z,7.70
2022-10-19T18:10:11.152Z,7.93
2022-10-19T18:12:38.933Z,9.20
2022-10-19T18:15:09.304Z,7.97
2022-10-19T18:17:37.439Z,8.77
2022-10-19T18:20:06.695Z,9.70
2022-10-19T18:22:34.501Z,9.30
2022-10-19T18:25:02.326Z,9.53
2022-10-19T18:27:30.148Z,9.20
2022-10-19T18:29:57.980Z,8.33
2022-10-19T18:32:27.150Z,9.30
2022-10-19T18:34:54.900Z,7.90
2022-10-19T18:37:22.667Z,8.70
2022-10-19T18:39:50.311Z,8.87
2022-10-19T18:42:18.270Z,9.53
2022-10-19T18:44:47.146Z,9.10
2022-10-19T18:47:14.783Z,9.43
2022-10-19T18:49:43.955Z,9.87
2022-10-19T18:52:11.702Z,8.20
2022-10-19T18:54:39.530Z,7.80
2022-10-19T18:57:07.187Z,8.00
2022-10-19T18:59:34.846Z,8.07
2022-10-19T19:02:02.525Z,8.80
2022-10-19T19:04:30.165Z,9.13
2022-10-19T19:06:59.404Z,8.10
2022-10-19T19:09:27.064Z,8.60
2022-10-19T19:11:57.899Z,10.10
2022-10-19T19:14:26.405Z,7.53
2022-10-19T19:16:54.729Z,7.70
2022-10-19T19:19:24.424Z,6.70
2022-10-19T19:21:52.577Z,7.57
2022-10-19T19:24:24.444Z,7.13
2022-10-19T19:26:54.784Z,7.30
2022-10-19T19:29:23.523Z,7.30
2022-10-19T19:31:51.809Z,7.73
2022-10-19T19:34:19.434Z,8.40
2022-10-19T19:36:48.530Z,8.03
2022-10-19T19:39:18.563Z,8.83
2022-10-19T19:41:49.114Z,8.63
2022-10-19T19:44:17.494Z,8.03
2022-10-19T19:46:45.221Z,9.43
2022-10-19T19:49:13.153Z,8.33
2022-10-19T19:51:40.843Z,8.40
2022-10-19T19:54:08.720Z,8.63
2022-10-19T19:56:37.283Z,7.93
2022-10-19T19:59:06.565Z,8.20
2022-10-19T20:01:34.356Z,8.87
2022-10-19T20:06:38.504Z,9.03
2022-10-19T20:09:07.538Z,8.60
2022-10-19T20:11:38.418Z,6.80
2022-10-19T20:14:10.258Z,7.07
2022-10-19T20:16:37.947Z,8.23
2022-10-19T20:19:08.078Z,7.50
2022-10-19T20:21:36.091Z,7.80
2022-10-19T20:24:04.407Z,9.67
2022-10-19T20:26:32.141Z,8.20
2022-10-19T20:28:59.996Z,6.50
2022-10-19T20:34:01.708Z,5.77
2022-10-19T20:36:29.422Z,6.67
2022-10-19T20:38:59.193Z,6.40
2022-10-19T20:41:29.025Z,6.67
2022-10-19T20:43:57.289Z,6.17
2022-10-19T20:46:26.328Z,7.00
2022-10-19T20:48:56.618Z,7.67
2022-10-19T20:51:30.658Z,6.73
2022-10-19T20:54:01.149Z,7.00
2022-10-19T20:56:31.345Z,7.43
2022-10-19T20:59:00.499Z,6.63
2022-10-19T21:01:29.897Z,6.70
2022-10-19T21:04:01.508Z,7.33
2022-10-19T21:06:30.981Z,7.87
2022-10-19T21:08:59.130Z,7.77
2022-10-19T21:11:28.893Z,8.20
2022-10-19T21:13:58.608Z,8.80
2022-10-19T21:16:29.984Z,9.00
2022-10-19T21:19:00.591Z,8.60
2022-10-19T21:21:29.982Z,8.77
2022-10-19T21:24:00.112Z,8.43
2022-10-19T21:26:28.811Z,10.67
2022-10-19T21:28:56.692Z,9.57
2022-10-19T21:31:25.988Z,8.97
2022-10-19T21:33:54.154Z,9.50
2022-10-19T21:36:25.020Z,9.40
2022-10-19T21:38:52.728Z,10.07
2022-10-19T21:41:25.487Z,8.10
2022-10-19T21:43:54.275Z,8.40
2022-10-19T21:46:23.614Z,8.53
2022-10-19T21:48:52.135Z,9.47
2022-10-19T21:51:37.394Z,7.87
2022-10-19T21:54:06.699Z,8.30
2022-10-19T21:56:35.076Z,8.20
2022-10-19T21:59:02.738Z,8.40
2022-10-19T22:01:37.248Z,8.10
2022-10-19T22:04:10.230Z,8.67
2022-10-19T22:06:39.286Z,7.83
2022-10-19T22:09:09.178Z,8.80
2022-10-19T22:11:37.247Z,8.90
2022-10-19T22:14:05.860Z,8.30
2022-10-19T22:16:35.142Z,8.90
2022-10-19T22:19:04.904Z,9.00
2022-10-19T22:21:34.260Z,9.10
2022-10-19T22:24:05.256Z,9.30
2022-10-19T22:26:35.563Z,8.63
2022-10-19T22:29:05.166Z,9.80
2022-10-19T22:31:34.302Z,9.00
2022-10-19T22:34:02.719Z,9.73
2022-10-19T22:36:30.904Z,8.70
2022-10-19T22:38:58.558Z,9.60
2022-10-19T22:41:27.582Z,8.37
2022-10-19T22:43:55.211Z,8.30
2022-10-19T22:46:22.920Z,8.50
2022-10-19T22:48:50.630Z,8.73
2022-10-19T22:51:18.453Z,8.33
2022-10-19T22:53:46.101Z,9.00
2022-10-19T22:56:14.095Z,10.00
2022-10-19T22:58:43.096Z,8.90
2022-10-19T23:01:13.524Z,9.40
2022-10-19T23:03:41.710Z,7.97
2022-10-19T23:06:11.515Z,7.33
2022-10-19T23:08:39.266Z,9.67
2022-10-19T23:11:07.144Z,8.10
2022-10-19T23:13:34.875Z,9.37
2022-10-19T23:16:04.512Z,9.40
2022-10-19T23:18:32.678Z,9.00
2022-10-19T23:21:02.254Z,8.93
2022-10-19T23:23:31.368Z,9.43
2022-10-19T23:26:03.185Z,8.70
2022-10-19T23:28:31.699Z,9.27
2022-10-19T23:31:04.601Z,9.30
2022-10-19T23:33:33.841Z,9.43
2022-10-19T23:36:06.424Z,9.40
2022-10-19T23:38:34.211Z,9.47
2022-10-19T23:41:01.834Z,9.60
2022-10-19T23:43:29.519Z,10.47
2022-10-19T23:45:57.230Z,9.33
2022-10-19T23:48:25.110Z,8.30
2022-10-19T23:51:02.170Z,9.57
2022-10-19T23:53:33.745Z,9.17
2022-10-19T23:56:06.485Z,8.77
2022-10-19T23:58:35.170Z,8.33
